ESCF/LPI METAR and TAF weather

Enter ICAO airport designator
Station Type Date Time Source
ESCF METAR 2019/02/20 23:20 UTC NOAA

ESCF 202320Z AUTO 09006KT 9999 OVC062/// M00/M05 Q1018


Station Type Date Time Source
ESCF Decoded METAR 2019/02/20 23:20 UTC NOAA

Linkoping / Malmen, Sweden (ESCF) 58-24N 015-31E 117M
Feb 20, 2019 - 06:20 PM EST / 2019.02.20 2320 UTC
Wind: from the E (090 degrees) at 7 MPH (6 KT):0
Visibility: greater than 7 mile(s):0
Sky conditions: overcast
Temperature: 32 F (0 C)
Windchill: 24 F (-4 C):1
Dew Point: 23 F (-5 C)
Relative Humidity: 69%
Pressure (altimeter): 30.06 in. Hg (1018 hPa)
ob: ESCF 202320Z AUTO 09006KT 9999 OVC062/// M00/M05 Q1018
cycle: 23

Station Type Date Time Source
ESCF TAF UTC NOAA

Error!


Example: see airport list